Time;durP1;ratioP1;P1;durP2;ratioP2;P2;SDS_P1;SDS_P2;PMS_P1;PMS_P2;Temp;Humidity;BMP_temperature;BMP_pressure;BME280_temperature;BME280_humidity;BME280_pressure;Samples;Min_cycle;Max_cycle;Signal;HPM_P1;HPM_P2
2024/04/14 00:00:12;;;;;;;10.77;9.20;;;18.50;91.20;;;;;;5240737;27;20320;-58
2024/04/14 00:02:39;;;;;;;16.10;10.27;;;18.40;91.10;;;;;;5242547;27;20328;-58
2024/04/14 00:05:06;;;;;;;14.07;9.30;;;18.40;91.20;;;;;;5238444;27;20290;-59
2024/04/14 00:07:34;;;;;;;12.50;9.23;;;18.30;91.20;;;;;;5238968;27;20306;-58
2024/04/14 00:10:01;;;;;;;13.47;10.37;;;18.30;91.20;;;;;;5238950;27;20351;-59
2024/04/14 00:12:29;;;;;;;10.47;9.37;;;18.30;91.30;;;;;;5240547;27;20828;-59
2024/04/14 00:14:56;;;;;;;12.43;9.13;;;18.30;91.30;;;;;;5236615;27;20265;-58
2024/04/14 00:17:23;;;;;;;11.40;9.67;;;18.30;91.40;;;;;;5241966;27;20277;-58
2024/04/14 00:19:52;;;;;;;10.00;9.00;;;18.30;91.40;;;;;;5242160;27;20631;-58
2024/04/14 00:22:20;;;;;;;16.20;9.83;;;18.30;91.40;;;;;;5240121;27;20292;-58
2024/04/14 00:24:48;;;;;;;13.53;9.70;;;18.30;91.40;;;;;;5242234;27;20257;-58
2024/04/14 00:27:15;;;;;;;12.60;8.47;;;18.30;91.40;;;;;;5237926;27;20247;-58
2024/04/14 00:29:42;;;;;;;14.93;10.03;;;18.30;91.40;;;;;;5213451;27;20278;-58
2024/04/14 00:32:10;;;;;;;11.80;9.00;;;18.30;91.40;;;;;;5240541;27;20294;-58
2024/04/14 00:34:37;;;;;;;11.97;9.13;;;18.30;91.40;;;;;;5242572;27;20307;-58
2024/04/14 00:37:05;;;;;;;11.43;9.27;;;18.20;91.50;;;;;;5244139;27;20297;-58
2024/04/14 00:39:32;;;;;;;11.30;10.20;;;18.20;91.50;;;;;;5244807;27;20255;-58
2024/04/14 00:42:00;;;;;;;10.83;9.70;;;18.20;91.50;;;;;;5242406;27;20705;-59
2024/04/14 00:44:28;;;;;;;11.07;9.50;;;18.20;91.60;;;;;;5240910;27;20287;-58
2024/04/14 00:46:55;;;;;;;13.93;8.63;;;18.10;91.60;;;;;;5242290;27;20363;-58
2024/04/14 00:49:23;;;;;;;14.03;9.17;;;18.10;91.60;;;;;;5242352;27;20247;-59
2024/04/14 00:51:52;;;;;;;10.77;9.00;;;18.10;91.70;;;;;;5244353;27;20248;-59
2024/04/14 00:54:20;;;;;;;10.43;9.43;;;18.00;91.80;;;;;;5239944;27;20563;-58
2024/04/14 00:56:48;;;;;;;12.90;9.90;;;18.00;91.80;;;;;;5241569;27;20762;-58
2024/04/14 00:59:16;;;;;;;12.50;9.93;;;17.90;91.90;;;;;;5239251;27;20337;-59
2024/04/14 01:01:43;;;;;;;11.17;9.73;;;17.90;91.90;;;;;;5243649;27;20992;-58
2024/04/14 01:04:11;;;;;;;11.83;10.03;;;17.80;92.00;;;;;;5244637;27;20259;-59
2024/04/14 01:06:38;;;;;;;15.13;11.07;;;17.80;92.00;;;;;;5239698;27;20290;-58
2024/04/14 01:09:08;;;;;;;14.77;10.30;;;17.70;92.00;;;;;;5241956;27;20310;-59
2024/04/14 01:11:35;;;;;;;11.97;9.70;;;17.70;92.10;;;;;;5243247;27;20816;-58
2024/04/14 01:14:06;;;;;;;11.13;10.03;;;17.70;92.20;;;;;;5243970;27;20356;-58
2024/04/14 01:16:36;;;;;;;13.60;11.33;;;17.70;92.30;;;;;;5242383;27;20294;-58
2024/04/14 01:19:04;;;;;;;14.87;10.80;;;17.60;92.30;;;;;;5244303;27;20247;-58
2024/04/14 01:21:32;;;;;;;14.60;11.07;;;17.60;92.30;;;;;;5237752;27;20260;-59
2024/04/14 01:24:00;;;;;;;14.97;10.97;;;17.60;92.30;;;;;;5243466;27;20286;-58
2024/04/14 01:26:27;;;;;;;13.90;11.13;;;17.50;92.30;;;;;;5239760;27;20240;-58
2024/04/14 01:28:54;;;;;;;12.27;10.70;;;17.50;92.40;;;;;;5239870;27;20255;-58
2024/04/14 01:31:21;;;;;;;12.97;11.77;;;17.50;92.70;;;;;;5242787;27;20259;-59
2024/04/14 01:33:50;;;;;;;13.57;10.00;;;17.40;92.40;;;;;;5243926;27;20619;-58
2024/04/14 01:36:17;;;;;;;12.47;10.40;;;17.40;92.40;;;;;;5238995;27;20251;-58
2024/04/14 01:38:44;;;;;;;15.33;10.83;;;17.40;92.40;;;;;;5243914;27;20248;-58
2024/04/14 01:41:11;;;;;;;14.63;11.97;;;17.30;92.30;;;;;;5242381;27;20298;-58
2024/04/14 01:43:39;;;;;;;15.30;10.77;;;17.40;92.30;;;;;;5243206;27;20298;-58
2024/04/14 01:46:06;;;;;;;16.00;11.60;;;17.30;92.20;;;;;;5242685;27;20292;-58
2024/04/14 01:48:34;;;;;;;17.80;10.30;;;17.30;92.20;;;;;;5235945;27;20310;-58
2024/04/14 01:51:01;;;;;;;13.40;11.60;;;17.30;92.20;;;;;;5242748;27;20298;-59
2024/04/14 01:53:29;;;;;;;12.70;11.40;;;17.30;92.20;;;;;;5244571;27;20324;-58
2024/04/14 01:55:56;;;;;;;11.93;9.90;;;17.20;92.20;;;;;;5240268;27;20264;-59
2024/04/14 01:58:23;;;;;;;13.20;10.77;;;17.20;92.20;;;;;;5244293;27;20737;-59
2024/04/14 02:00:51;;;;;;;14.30;10.50;;;17.20;92.30;;;;;;5243237;27;20248;-58
2024/04/14 02:03:18;;;;;;;14.00;10.33;;;17.10;92.50;;;;;;5242799;27;20294;-58
2024/04/14 02:05:54;;;;;;;18.60;10.97;;;17.10;92.30;;;;;;5242963;27;20283;-58
2024/04/14 02:08:21;;;;;;;14.00;10.83;;;17.10;92.30;;;;;;5242926;27;20267;-58
2024/04/14 02:10:49;;;;;;;14.63;10.43;;;17.10;92.30;;;;;;5241369;27;20259;-58
2024/04/14 02:13:16;;;;;;;12.90;11.07;;;17.10;92.30;;;;;;5242354;27;20298;-58
2024/04/14 02:15:45;;;;;;;12.10;10.00;;;17.10;92.30;;;;;;5242604;27;20323;-58
2024/04/14 02:18:14;;;;;;;14.90;10.80;;;17.10;92.30;;;;;;5242594;27;20262;-58
2024/04/14 02:20:43;;;;;;;13.23;10.80;;;17.10;92.20;;;;;;5243668;27;20244;-58
2024/04/14 02:23:10;;;;;;;12.97;11.37;;;17.10;92.20;;;;;;5239024;27;20354;-58
2024/04/14 02:25:38;;;;;;;11.87;10.33;;;17.00;92.20;;;;;;5241910;27;20300;-58
2024/04/14 02:28:05;;;;;;;17.17;11.63;;;17.00;92.20;;;;;;5241295;27;20276;-58
2024/04/14 02:30:33;;;;;;;14.10;11.60;;;17.00;92.30;;;;;;5242516;27;20301;-58
2024/04/14 02:33:00;;;;;;;15.00;12.27;;;17.00;92.30;;;;;;5240679;27;20359;-59
2024/04/14 02:35:28;;;;;;;14.60;12.03;;;17.00;92.40;;;;;;5242646;27;20240;-58
2024/04/14 02:37:55;;;;;;;16.73;11.43;;;16.90;92.30;;;;;;5241720;27;20250;-58
2024/04/14 02:40:23;;;;;;;18.10;11.10;;;16.90;92.30;;;;;;5239472;27;20255;-59
2024/04/14 02:42:50;;;;;;;14.53;11.27;;;16.90;92.40;;;;;;5243200;27;20724;-58
2024/04/14 02:45:18;;;;;;;11.93;10.53;;;16.90;92.40;;;;;;5239661;27;20247;-58
2024/04/14 02:47:45;;;;;;;12.43;11.00;;;16.80;92.30;;;;;;5242829;27;20359;-58
2024/04/14 02:50:13;;;;;;;19.50;11.30;;;16.80;92.30;;;;;;5242814;27;20692;-58
2024/04/14 02:52:40;;;;;;;14.97;10.63;;;16.80;92.30;;;;;;5243853;27;20251;-59
2024/04/14 02:55:07;;;;;;;14.90;10.40;;;16.80;92.40;;;;;;5246785;27;20730;-58
2024/04/14 02:57:34;;;;;;;14.77;11.60;;;16.70;92.40;;;;;;5240848;27;20238;-58
2024/04/14 03:00:02;;;;;;;14.40;10.40;;;16.70;92.40;;;;;;5236462;27;20312;-59
2024/04/14 03:02:29;;;;;;;18.40;10.40;;;16.60;92.40;;;;;;5240861;27;20246;-58
2024/04/14 03:04:56;;;;;;;11.53;9.67;;;16.60;92.40;;;;;;5243409;27;20247;-58
2024/04/14 03:07:24;;;;;;;13.30;10.20;;;16.50;92.40;;;;;;5242363;27;20252;-59
2024/04/14 03:09:52;;;;;;;11.33;10.30;;;16.40;92.50;;;;;;5243295;27;20326;-58
2024/04/14 03:12:20;;;;;;;10.97;9.67;;;16.30;92.60;;;;;;5237441;27;20359;-58
2024/04/14 03:14:47;;;;;;;11.80;9.63;;;16.30;92.70;;;;;;5234427;27;20617;-59
2024/04/14 03:17:16;;;;;;;12.77;9.90;;;16.30;92.80;;;;;;5241835;27;20931;-58
2024/04/14 03:19:43;;;;;;;11.80;10.60;;;16.30;92.80;;;;;;5238913;27;20254;-58
2024/04/14 03:22:10;;;;;;;17.80;10.93;;;16.30;92.90;;;;;;5242889;27;20258;-59
2024/04/14 03:24:38;;;;;;;16.00;10.43;;;16.30;92.90;;;;;;5239638;27;20256;-58
2024/04/14 03:27:05;;;;;;;11.73;10.57;;;16.30;92.90;;;;;;5243280;27;20259;-59
2024/04/14 03:29:32;;;;;;;11.87;10.53;;;16.30;92.90;;;;;;5239125;27;20291;-58
2024/04/14 03:31:59;;;;;;;10.53;9.13;;;16.30;92.90;;;;;;5242025;27;20258;-59
2024/04/14 03:34:27;;;;;;;13.87;9.57;;;16.30;92.90;;;;;;5216802;27;20309;-58
2024/04/14 03:36:56;;;;;;;14.20;10.57;;;16.30;92.90;;;;;;5245016;27;20250;-59
2024/04/14 03:39:24;;;;;;;11.40;10.10;;;16.30;92.90;;;;;;5215328;27;20566;-58
2024/04/14 03:41:52;;;;;;;16.67;9.77;;;16.30;92.90;;;;;;5241407;27;20317;-58
2024/04/14 03:44:19;;;;;;;11.10;9.93;;;16.30;92.90;;;;;;5239807;27;20347;-58
2024/04/14 03:46:47;;;;;;;12.83;10.57;;;16.30;93.00;;;;;;5244403;27;20246;-58
2024/04/14 03:49:15;;;;;;;12.57;10.40;;;16.30;93.00;;;;;;5245416;27;20762;-58
2024/04/14 03:51:42;;;;;;;13.30;10.60;;;16.30;92.90;;;;;;5240222;27;20247;-58
2024/04/14 03:54:10;;;;;;;12.67;11.23;;;16.20;92.90;;;;;;5245497;27;20354;-58
2024/04/14 03:56:37;;;;;;;14.70;11.83;;;16.20;92.90;;;;;;5213374;27;20310;-59
2024/04/14 03:59:06;;;;;;;14.70;12.40;;;16.20;92.90;;;;;;5194030;27;20629;-58
2024/04/14 04:01:34;;;;;;;15.60;12.17;;;16.10;92.90;;;;;;5191426;27;20253;-59
2024/04/14 04:04:01;;;;;;;14.47;12.77;;;16.10;93.00;;;;;;5243859;27;20294;-59
2024/04/14 04:06:29;;;;;;;17.70;11.60;;;16.10;93.10;;;;;;5244511;27;20284;-58
2024/04/14 04:08:56;;;;;;;15.60;12.53;;;16.10;93.10;;;;;;5243789;27;20259;-59
2024/04/14 04:11:24;;;;;;;14.93;12.90;;;16.10;93.10;;;;;;5243139;27;20420;-58
2024/04/14 04:13:53;;;;;;;13.17;11.80;;;16.10;93.20;;;;;;5242983;27;20639;-58
2024/04/14 04:16:20;;;;;;;14.70;12.83;;;16.10;93.20;;;;;;5243580;27;20249;-58
2024/04/14 04:18:51;;;;;;;17.73;13.83;;;16.10;93.20;;;;;;5217731;27;20249;-58
2024/04/14 04:21:18;;;;;;;14.70;13.03;;;16.10;93.20;;;;;;5245026;27;20280;-58
2024/04/14 04:23:46;;;;;;;15.93;13.27;;;16.00;93.10;;;;;;5214640;27;20251;-58
2024/04/14 04:26:14;;;;;;;15.03;13.13;;;16.00;93.10;;;;;;5217933;27;20244;-59
2024/04/14 04:28:42;;;;;;;14.73;13.17;;;16.00;93.10;;;;;;5179225;27;20357;-59
2024/04/14 04:31:12;;;;;;;16.43;12.90;;;16.00;93.10;;;;;;5243583;27;20258;-58
2024/04/14 04:33:41;;;;;;;19.20;14.07;;;15.90;93.20;;;;;;5240225;27;20239;-59
2024/04/14 04:36:12;;;;;;;18.43;14.47;;;15.90;93.30;;;;;;5214952;27;20252;-58
2024/04/14 04:38:42;;;;;;;18.00;14.03;;;15.90;93.40;;;;;;5238455;27;20245;-58
2024/04/14 04:41:13;;;;;;;17.53;13.77;;;15.90;93.50;;;;;;5215958;27;20249;-58
2024/04/14 04:43:42;;;;;;;21.50;14.17;;;15.90;93.50;;;;;;5241397;27;20242;-58
2024/04/14 04:46:10;;;;;;;16.30;14.43;;;15.90;93.50;;;;;;5185656;27;20262;-59
2024/04/14 04:48:38;;;;;;;16.33;13.20;;;15.90;93.50;;;;;;5223058;27;20289;-58
2024/04/14 04:51:06;;;;;;;17.80;14.33;;;15.90;93.50;;;;;;5232131;27;20294;-59
2024/04/14 04:53:34;;;;;;;14.67;13.07;;;15.90;93.60;;;;;;5225818;27;20580;-58
2024/04/14 04:56:01;;;;;;;15.77;13.43;;;15.90;93.60;;;;;;5242146;27;20351;-58
2024/04/14 04:58:28;;;;;;;16.93;13.00;;;16.00;93.60;;;;;;5237840;27;20269;-58
2024/04/14 05:00:57;;;;;;;14.53;12.93;;;16.00;93.60;;;;;;5236753;27;20249;-58
2024/04/14 05:03:25;;;;;;;17.97;12.13;;;16.00;93.70;;;;;;5244035;27;20354;-58
2024/04/14 05:06:00;;;;;;;17.00;13.23;;;16.10;93.70;;;;;;5218472;27;20297;-58
2024/04/14 05:08:28;;;;;;;15.57;12.73;;;16.10;93.90;;;;;;5243179;27;20312;-58
2024/04/14 05:10:57;;;;;;;14.00;12.03;;;16.10;93.60;;;;;;5235955;27;21483;-59
2024/04/14 05:13:25;;;;;;;14.17;12.67;;;16.10;93.50;;;;;;5239869;27;20250;-58
2024/04/14 05:15:53;;;;;;;15.47;11.93;;;16.20;93.50;;;;;;5238153;27;20262;-58
2024/04/14 05:18:21;;;;;;;15.97;13.07;;;16.20;93.50;;;;;;5242409;27;20339;-58
2024/04/14 05:20:49;;;;;;;16.70;12.70;;;16.20;93.40;;;;;;5240945;27;20259;-58
2024/04/14 05:23:17;;;;;;;16.33;12.20;;;16.20;93.40;;;;;;5190454;27;20257;-58
2024/04/14 05:25:49;;;;;;;17.07;12.53;;;16.20;93.40;;;;;;5182565;27;20303;-58
2024/04/14 05:28:16;;;;;;;15.93;12.00;;;16.20;93.40;;;;;;5184361;27;20708;-58
2024/04/14 05:30:45;;;;;;;15.33;12.20;;;16.20;93.40;;;;;;5245948;27;20603;-59
2024/04/14 05:33:12;;;;;;;14.37;11.10;;;16.30;93.50;;;;;;5243167;27;20251;-59
2024/04/14 05:35:40;;;;;;;14.00;11.83;;;16.30;93.50;;;;;;5215193;27;20253;-58
2024/04/14 05:38:08;;;;;;;14.37;12.03;;;16.40;93.60;;;;;;5214143;27;20253;-58
2024/04/14 05:40:36;;;;;;;14.37;12.77;;;16.50;93.70;;;;;;5244847;27;20243;-58
2024/04/14 05:43:03;;;;;;;13.07;11.70;;;16.50;93.70;;;;;;5189388;27;20248;-58
2024/04/14 05:45:31;;;;;;;13.53;11.40;;;16.70;93.70;;;;;;5246643;27;20257;-58
2024/04/14 05:47:59;;;;;;;15.83;11.53;;;16.80;93.60;;;;;;5217695;27;20252;-59
2024/04/14 05:50:27;;;;;;;20.60;11.03;;;16.90;93.50;;;;;;5242626;27;20286;-58
2024/04/14 05:52:54;;;;;;;12.27;10.97;;;17.00;93.40;;;;;;5245834;27;20255;-58
2024/04/14 05:55:21;;;;;;;16.50;10.80;;;17.10;93.30;;;;;;5242808;27;20241;-58
2024/04/14 05:57:50;;;;;;;11.80;10.60;;;17.30;93.20;;;;;;5244168;27;20261;-58
2024/04/14 06:00:18;;;;;;;16.03;11.63;;;17.40;93.00;;;;;;5211073;27;20294;-58
2024/04/14 06:02:45;;;;;;;11.43;10.23;;;17.50;92.80;;;;;;5237507;27;20300;-58
2024/04/14 06:05:14;;;;;;;13.27;11.87;;;17.60;92.70;;;;;;5217977;27;20290;-58
2024/04/14 06:07:45;;;;;;;13.47;10.90;;;17.70;92.60;;;;;;5218761;27;20251;-58
2024/04/14 06:10:13;;;;;;;11.53;10.33;;;17.80;92.60;;;;;;5244406;27;20337;-58
2024/04/14 06:12:41;;;;;;;12.20;9.93;;;17.90;92.60;;;;;;5215329;27;20262;-58
2024/04/14 06:15:09;;;;;;;12.60;9.90;;;18.00;92.50;;;;;;5213067;27;20253;-59
2024/04/14 06:17:36;;;;;;;12.03;8.93;;;18.20;92.70;;;;;;5210910;27;20260;-58
2024/04/14 06:20:04;;;;;;;11.93;9.00;;;18.30;92.20;;;;;;5211747;27;20295;-58
2024/04/14 06:22:32;;;;;;;10.70;9.50;;;18.50;92.00;;;;;;5194400;27;20597;-58
2024/04/14 06:25:00;;;;;;;10.43;9.53;;;18.70;91.70;;;;;;5211416;27;20248;-58
2024/04/14 06:27:27;;;;;;;10.87;9.73;;;18.80;91.40;;;;;;5211264;27;20253;-58
2024/04/14 06:29:55;;;;;;;10.07;9.07;;;19.00;91.10;;;;;;5207894;27;20257;-58
2024/04/14 06:32:23;;;;;;;12.17;9.10;;;19.10;90.80;;;;;;5192255;27;20339;-58
2024/04/14 06:34:50;;;;;;;12.23;9.07;;;19.20;90.50;;;;;;5211155;27;20299;-58
2024/04/14 06:37:19;;;;;;;14.87;10.00;;;19.30;90.30;;;;;;5212647;27;20261;-58
2024/04/14 06:39:46;;;;;;;12.73;9.27;;;19.40;90.30;;;;;;5212423;27;20568;-59
2024/04/14 06:42:14;;;;;;;16.73;9.43;;;19.50;90.20;;;;;;5210354;27;20249;-58
2024/04/14 06:44:43;;;;;;;11.63;9.53;;;19.60;90.00;;;;;;5201443;27;20296;-59
2024/04/14 06:47:10;;;;;;;12.43;9.60;;;19.70;89.90;;;;;;5213055;27;20299;-61
2024/04/14 06:49:38;;;;;;;11.47;10.20;;;19.80;90.00;;;;;;5201188;27;20249;-61
2024/04/14 06:52:06;;;;;;;10.43;9.40;;;19.90;89.90;;;;;;5209767;27;20245;-58
2024/04/14 06:54:33;;;;;;;10.37;9.27;;;20.10;89.80;;;;;;5207132;27;20245;-58
2024/04/14 06:57:02;;;;;;;11.50;8.97;;;20.20;89.50;;;;;;5212618;27;20605;-59
2024/04/14 06:59:30;;;;;;;9.60;8.70;;;20.40;89.20;;;;;;5210802;27;20249;-59
2024/04/14 07:01:59;;;;;;;13.00;8.60;;;20.50;88.90;;;;;;5202993;27;20299;-58
2024/04/14 07:04:26;;;;;;;9.47;8.57;;;20.60;88.60;;;;;;5210745;27;20257;-59
2024/04/14 07:06:55;;;;;;;12.97;9.40;;;20.70;88.50;;;;;;5214833;27;20608;-59
2024/04/14 07:09:23;;;;;;;10.13;8.03;;;20.90;88.10;;;;;;5183813;27;20300;-59
2024/04/14 07:11:53;;;;;;;10.40;8.10;;;21.10;87.30;;;;;;5205176;27;20251;-59
2024/04/14 07:14:21;;;;;;;13.67;8.73;;;21.20;86.30;;;;;;5208328;27;20319;-59
2024/04/14 07:16:49;;;;;;;12.50;9.00;;;21.30;85.90;;;;;;5198570;27;20766;-59
2024/04/14 07:19:17;;;;;;;14.53;7.73;;;21.40;85.70;;;;;;5213766;27;20254;-58
2024/04/14 07:21:45;;;;;;;9.53;8.53;;;21.50;85.50;;;;;;5243222;27;20248;-59
2024/04/14 07:24:13;;;;;;;12.10;9.20;;;21.60;85.30;;;;;;5243155;27;20256;-59
2024/04/14 07:26:41;;;;;;;12.40;8.77;;;21.70;85.40;;;;;;5243043;27;20315;-59
2024/04/14 07:29:09;;;;;;;12.00;9.77;;;21.90;85.50;;;;;;5245115;27;20253;-59
2024/04/14 07:31:37;;;;;;;11.43;9.03;;;22.00;85.00;;;;;;5215121;27;20261;-59
2024/04/14 07:34:04;;;;;;;13.13;9.30;;;22.10;84.50;;;;;;5245650;27;20253;-59
2024/04/14 07:36:32;;;;;;;12.87;9.47;;;22.20;84.30;;;;;;5212543;27;20283;-59
2024/04/14 07:39:00;;;;;;;13.27;10.37;;;22.30;84.30;;;;;;5223576;27;20248;-59
2024/04/14 07:41:28;;;;;;;12.37;11.10;;;22.40;84.00;;;;;;5215315;27;20360;-59
2024/04/14 07:43:56;;;;;;;14.00;10.27;;;22.50;83.10;;;;;;5243965;27;20298;-59
2024/04/14 07:46:26;;;;;;;12.47;11.17;;;22.50;82.70;;;;;;5213234;27;20573;-58
2024/04/14 07:48:53;;;;;;;14.30;10.63;;;22.50;82.90;;;;;;5244399;27;20299;-59
2024/04/14 07:51:21;;;;;;;15.97;12.00;;;22.50;83.30;;;;;;5244310;27;20324;-58
2024/04/14 07:53:48;;;;;;;14.37;11.70;;;22.60;83.90;;;;;;5248337;27;20249;-59
2024/04/14 07:56:15;;;;;;;13.10;11.70;;;22.70;84.40;;;;;;5244410;27;20552;-58
2024/04/14 07:58:43;;;;;;;14.23;12.13;;;22.80;82.70;;;;;;5216843;27;20264;-59
2024/04/14 08:01:11;;;;;;;17.90;13.47;;;22.90;82.50;;;;;;5242417;27;20313;-59
2024/04/14 08:03:39;;;;;;;15.57;12.47;;;23.00;82.60;;;;;;5211803;27;20299;-59
2024/04/14 08:06:19;;;;;;;14.57;12.40;;;23.20;82.70;;;;;;5207237;27;20295;-58
2024/04/14 08:08:47;;;;;;;17.77;14.27;;;23.30;82.30;;;;;;5240304;27;20270;-59
2024/04/14 08:11:15;;;;;;;15.90;13.57;;;23.40;82.20;;;;;;5189344;27;20298;-58
2024/04/14 08:13:42;;;;;;;18.83;13.87;;;23.50;82.20;;;;;;5243255;27;20636;-58
2024/04/14 08:16:09;;;;;;;15.67;13.77;;;23.50;81.90;;;;;;5212715;27;20694;-58
2024/04/14 08:18:37;;;;;;;17.77;13.23;;;23.50;82.60;;;;;;5240745;27;20637;-59
2024/04/14 08:21:04;;;;;;;15.73;13.10;;;23.50;82.50;;;;;;5243186;27;20256;-58
2024/04/14 08:23:31;;;;;;;18.67;14.47;;;23.60;82.60;;;;;;5242236;27;20303;-58
2024/04/14 08:26:03;;;;;;;21.63;15.10;;;23.70;82.40;;;;;;5219019;27;20248;-58
2024/04/14 08:28:30;;;;;;;17.23;15.43;;;23.90;82.40;;;;;;5246350;27;20711;-58
2024/04/14 08:30:57;;;;;;;18.67;16.63;;;24.00;82.10;;;;;;5241183;27;20249;-58
2024/04/14 08:33:25;;;;;;;15.60;14.03;;;24.20;81.70;;;;;;5243021;27;20244;-59
2024/04/14 08:35:52;;;;;;;18.63;14.53;;;24.40;81.10;;;;;;5244289;27;20253;-58
2024/04/14 08:38:19;;;;;;;18.43;13.97;;;24.40;81.20;;;;;;5244171;27;20629;-58
2024/04/14 08:40:54;;;;;;;16.70;13.30;;;24.60;81.40;;;;;;5240962;27;20328;-58
2024/04/14 08:43:21;;;;;;;18.43;14.53;;;24.80;81.20;;;;;;5241419;27;20305;-58
2024/04/14 08:45:50;;;;;;;18.47;14.43;;;25.10;81.00;;;;;;5183199;27;20283;-58
2024/04/14 08:48:18;;;;;;;17.57;13.37;;;25.30;80.30;;;;;;5242302;27;20733;-59
2024/04/14 08:50:51;;;;;;;16.77;14.57;;;25.50;79.80;;;;;;5242593;27;20253;-59
2024/04/14 08:53:19;;;;;;;15.63;14.13;;;25.70;78.60;;;;;;5242962;27;20244;-59
2024/04/14 08:55:46;;;;;;;17.03;14.03;;;25.80;78.30;;;;;;5245456;27;20248;-58
2024/04/14 08:58:15;;;;;;;16.43;14.53;;;26.00;77.80;;;;;;5190767;27;20248;-58
2024/04/14 09:00:46;;;;;;;20.20;15.60;;;26.00;77.30;;;;;;5211966;27;20244;-58
2024/04/14 09:03:14;;;;;;;19.90;15.07;;;26.10;76.70;;;;;;5221396;27;20267;-58
2024/04/14 09:05:44;;;;;;;17.23;14.13;;;26.20;76.80;;;;;;5247500;27;20291;-58
2024/04/14 09:08:12;;;;;;;17.37;15.37;;;26.40;76.70;;;;;;5222676;27;20253;-59
2024/04/14 09:10:40;;;;;;;19.73;16.30;;;26.60;76.20;;;;;;5218448;27;20332;-59
2024/04/14 09:13:08;;;;;;;15.43;13.93;;;26.70;75.40;;;;;;5212763;27;20353;-58
2024/04/14 09:15:40;;;;;;;18.07;14.43;;;26.80;75.40;;;;;;5211998;27;20253;-58
2024/04/14 09:18:08;;;;;;;20.77;12.60;;;26.90;74.80;;;;;;5210550;27;20250;-58
2024/04/14 09:20:36;;;;;;;15.57;13.10;;;27.10;74.00;;;;;;5209414;27;20823;-59
2024/04/14 09:23:04;;;;;;;15.23;13.60;;;27.10;73.60;;;;;;5211220;27;20246;-59
2024/04/14 09:25:33;;;;;;;20.20;14.77;;;27.30;73.70;;;;;;5213439;27;20766;-59
2024/04/14 09:28:07;;;;;;;15.17;12.93;;;27.40;73.50;;;;;;5209594;27;20712;-58
2024/04/14 09:30:35;;;;;;;15.53;13.10;;;27.50;73.20;;;;;;5207586;27;20287;-58
2024/04/14 09:33:03;;;;;;;20.07;14.50;;;27.60;72.80;;;;;;5211795;27;20257;-58
2024/04/14 09:35:33;;;;;;;12.73;11.53;;;27.60;72.20;;;;;;5216271;27;20341;-58
2024/04/14 09:38:01;;;;;;;17.60;11.03;;;27.70;72.30;;;;;;5213499;27;20300;-58
2024/04/14 09:40:31;;;;;;;15.47;11.37;;;27.80;72.40;;;;;;5208524;27;20245;-59
2024/04/14 09:43:00;;;;;;;17.20;12.37;;;27.80;72.10;;;;;;5206373;27;20280;-58
2024/04/14 09:45:31;;;;;;;14.43;10.23;;;27.90;71.40;;;;;;5235826;27;20292;-58
2024/04/14 09:47:59;;;;;;;13.33;11.30;;;28.00;71.60;;;;;;5213852;27;20659;-58
2024/04/14 09:50:30;;;;;;;13.57;11.27;;;28.10;71.00;;;;;;5212943;27;20254;-58
2024/04/14 09:52:58;;;;;;;17.00;12.23;;;28.10;70.30;;;;;;5212385;27;20317;-59
2024/04/14 09:55:26;;;;;;;17.20;12.13;;;28.20;69.70;;;;;;5208877;27;20342;-58
2024/04/14 09:57:53;;;;;;;13.80;10.97;;;28.20;69.00;;;;;;5213049;27;20296;-58
2024/04/14 10:00:21;;;;;;;18.73;11.17;;;28.30;68.60;;;;;;5210039;27;20758;-58
2024/04/14 10:02:53;;;;;;;13.50;10.00;;;28.40;68.80;;;;;;5206290;27;20263;-59
2024/04/14 10:05:23;;;;;;;14.23;9.97;;;28.40;68.20;;;;;;5211425;27;20284;-58
2024/04/14 10:07:51;;;;;;;14.60;10.33;;;28.50;68.70;;;;;;5207965;27;20254;-59
2024/04/14 10:10:19;;;;;;;14.60;9.50;;;28.50;68.90;;;;;;5209413;27;20684;-58
2024/04/14 10:12:47;;;;;;;14.03;11.30;;;28.50;68.00;;;;;;5204624;27;20250;-58
2024/04/14 10:15:15;;;;;;;12.97;10.37;;;28.60;68.00;;;;;;5211257;27;20250;-58
2024/04/14 10:17:42;;;;;;;10.17;9.07;;;28.60;68.10;;;;;;5206142;27;20357;-58
2024/04/14 10:20:15;;;;;;;12.60;9.47;;;28.60;67.20;;;;;;5208092;27;20245;-59
2024/04/14 10:22:45;;;;;;;9.37;8.17;;;28.70;66.30;;;;;;5209872;27;20554;-58
2024/04/14 10:25:21;;;;;;;15.83;7.87;;;28.70;67.10;;;;;;5212439;27;20296;-58
2024/04/14 10:27:49;;;;;;;11.33;8.33;;;28.80;66.90;;;;;;5183621;27;20245;-58
2024/04/14 10:30:24;;;;;;;9.13;7.47;;;29.00;66.20;;;;;;5212988;27;20296;-59
2024/04/14 10:33:05;;;;;;;12.90;7.60;;;29.10;65.80;;;;;;5205244;27;20356;-58
2024/04/14 10:35:33;;;;;;;12.57;6.70;;;29.20;65.50;;;;;;5205935;27;20249;-59
2024/04/14 10:38:01;;;;;;;10.87;7.83;;;29.40;65.30;;;;;;5211951;27;20258;-59
2024/04/14 10:40:29;;;;;;;7.73;6.97;;;29.50;64.70;;;;;;5210332;27;20295;-59
2024/04/14 10:43:00;;;;;;;9.40;7.23;;;29.60;64.80;;;;;;5183342;27;20272;-59
2024/04/14 10:45:29;;;;;;;9.47;7.07;;;29.70;64.00;;;;;;5177065;27;20258;-60
2024/04/14 10:47:57;;;;;;;11.93;7.57;;;29.80;63.00;;;;;;5211394;27;20253;-60
2024/04/14 10:50:27;;;;;;;12.23;7.03;;;29.90;62.10;;;;;;5210383;27;20245;-59
2024/04/14 10:52:56;;;;;;;12.60;7.00;;;29.90;61.50;;;;;;5212211;27;20300;-59
2024/04/14 10:55:26;;;;;;;10.47;7.50;;;30.00;61.80;;;;;;5184123;27;20246;-59
2024/04/14 10:57:54;;;;;;;10.27;6.87;;;30.00;61.50;;;;;;5205541;27;20257;-58
2024/04/14 11:00:23;;;;;;;11.90;6.70;;;30.10;61.00;;;;;;5209863;27;20293;-59
2024/04/14 11:02:52;;;;;;;6.33;5.73;;;30.20;61.20;;;;;;5209352;27;20258;-59
2024/04/14 11:05:23;;;;;;;8.17;7.30;;;30.30;61.60;;;;;;5212271;27;20324;-59
2024/04/14 11:07:51;;;;;;;5.97;5.37;;;30.30;61.20;;;;;;5212212;27;20818;-60
2024/04/14 11:10:21;;;;;;;8.63;5.90;;;30.40;60.10;;;;;;5212764;27;20249;-59
2024/04/14 11:12:50;;;;;;;9.57;6.10;;;30.30;59.50;;;;;;5210487;27;20300;-59
2024/04/14 11:15:18;;;;;;;10.23;6.23;;;30.30;59.30;;;;;;5226737;27;20311;-59
2024/04/14 11:17:46;;;;;;;9.53;6.50;;;30.40;59.40;;;;;;5218583;27;20640;-59
2024/04/14 11:20:14;;;;;;;8.93;5.43;;;30.40;58.40;;;;;;5239296;27;20299;-59
2024/04/14 11:22:42;;;;;;;7.43;5.23;;;30.40;58.80;;;;;;5207896;27;20560;-60
2024/04/14 11:25:09;;;;;;;10.90;5.93;;;30.50;60.00;;;;;;5244751;27;20307;-59
2024/04/14 11:27:37;;;;;;;6.40;5.17;;;30.60;60.00;;;;;;5245605;27;20283;-59
2024/04/14 11:30:05;;;;;;;6.43;5.77;;;30.70;60.10;;;;;;5227811;27;20244;-60
2024/04/14 11:32:38;;;;;;;9.97;5.83;;;30.80;59.80;;;;;;5217757;27;20254;-59
2024/04/14 11:35:08;;;;;;;6.87;5.80;;;30.80;59.30;;;;;;5178898;27;20784;-59
2024/04/14 11:37:38;;;;;;;13.00;5.43;;;30.80;59.50;;;;;;5244503;27;20248;-59
2024/04/14 11:40:07;;;;;;;8.80;4.73;;;30.90;59.90;;;;;;5210432;27;20361;-59
2024/04/14 11:42:38;;;;;;;7.87;5.07;;;31.00;59.70;;;;;;5242130;27;20250;-59
2024/04/14 11:45:07;;;;;;;6.43;4.90;;;31.00;59.60;;;;;;5243659;27;20248;-59
2024/04/14 11:47:35;;;;;;;8.57;4.97;;;31.10;59.80;;;;;;5183674;27;20242;-59
2024/04/14 11:50:04;;;;;;;6.30;5.70;;;31.30;58.50;;;;;;5221050;27;20291;-59
2024/04/14 11:52:31;;;;;;;8.13;4.83;;;31.30;57.50;;;;;;5212480;27;20249;-59
2024/04/14 11:55:05;;;;;;;13.07;5.07;;;31.40;58.30;;;;;;5245233;27;20248;-60
2024/04/14 11:57:34;;;;;;;8.57;4.97;;;31.40;57.30;;;;;;5210922;27;20249;-59
2024/04/14 12:00:02;;;;;;;11.00;5.63;;;31.40;57.70;;;;;;5241212;27;20414;-60
2024/04/14 12:02:39;;;;;;;6.70;5.23;;;31.40;58.10;;;;;;5217334;27;20239;-60
2024/04/14 12:05:06;;;;;;;5.73;4.87;;;31.40;57.80;;;;;;5215885;27;20264;-59
2024/04/14 12:07:36;;;;;;;10.17;4.80;;;31.30;57.80;;;;;;5210143;27;20677;-60
2024/04/14 12:10:04;;;;;;;7.27;4.93;;;31.30;57.60;;;;;;5179706;27;20294;-60
2024/04/14 12:12:31;;;;;;;5.90;4.60;;;31.20;57.70;;;;;;5241532;27;20256;-60
2024/04/14 12:14:59;;;;;;;6.33;4.63;;;31.20;58.00;;;;;;5208055;27;20254;-59
2024/04/14 12:17:26;;;;;;;8.93;4.50;;;31.10;57.50;;;;;;5210438;27;21384;-59
2024/04/14 12:19:54;;;;;;;7.70;4.33;;;31.00;56.90;;;;;;5244513;27;20718;-60
2024/04/14 12:22:22;;;;;;;10.17;4.63;;;31.10;57.00;;;;;;5213768;27;20248;-60
2024/04/14 12:24:50;;;;;;;7.90;4.17;;;31.10;57.10;;;;;;5244453;27;20291;-59
2024/04/14 12:27:18;;;;;;;6.83;4.03;;;31.10;55.60;;;;;;5215297;27;20504;-60
2024/04/14 12:29:47;;;;;;;6.90;4.27;;;31.10;54.70;;;;;;5210488;27;20252;-60
2024/04/14 12:32:16;;;;;;;7.23;4.00;;;31.00;53.20;;;;;;5245756;27;20351;-60
2024/04/14 12:34:44;;;;;;;10.07;4.37;;;31.00;54.80;;;;;;5246146;27;20356;-59
2024/04/14 12:37:12;;;;;;;10.43;4.70;;;31.00;53.90;;;;;;5222067;27;20260;-59